Time;durP1;ratioP1;P1;durP2;ratioP2;P2;SDS_P1;SDS_P2;PMS_P1;PMS_P2;Temp;Humidity;BMP_temperature;BMP_pressure;BME280_temperature;BME280_humidity;BME280_pressure;Samples;Min_cycle;Max_cycle;Signal;HPM_P1;HPM_P2
2021/03/30 00:00:07;;;;;;;10.73;5.10;;;6.30;84.50;;;;;;5000913;28;20361;-63
2021/03/30 00:02:33;;;;;;;9.03;5.37;;;6.20;84.80;;;;;;5010773;28;20556;-61
2021/03/30 00:04:59;;;;;;;8.63;4.60;;;6.20;84.80;;;;;;5007377;28;20446;-61
2021/03/30 00:07:24;;;;;;;10.67;5.30;;;6.20;84.80;;;;;;5006610;28;20184;-62
2021/03/30 00:09:50;;;;;;;10.17;5.30;;;6.10;85.00;;;;;;5007844;28;20181;-62
2021/03/30 00:12:16;;;;;;;9.07;4.70;;;6.10;85.00;;;;;;5004317;28;20275;-62
2021/03/30 00:14:41;;;;;;;10.80;4.90;;;6.00;86.10;;;;;;5004321;28;20274;-62
2021/03/30 00:17:07;;;;;;;6.23;4.87;;;6.00;87.20;;;;;;5003318;28;20660;-62
2021/03/30 00:19:33;;;;;;;9.83;5.10;;;6.00;87.10;;;;;;5007781;28;20199;-63
2021/03/30 00:21:58;;;;;;;6.73;4.87;;;5.90;87.20;;;;;;5001993;28;20251;-63
2021/03/30 00:24:24;;;;;;;7.63;4.80;;;5.90;87.60;;;;;;5002856;28;20267;-61
2021/03/30 00:26:50;;;;;;;6.57;5.37;;;5.90;87.80;;;;;;5004117;28;20605;-62
2021/03/30 00:29:16;;;;;;;6.83;4.30;;;5.80;88.20;;;;;;4999879;28;20431;-61
2021/03/30 00:31:41;;;;;;;20.30;5.57;;;5.80;88.20;;;;;;5008564;28;20200;-61
2021/03/30 00:34:07;;;;;;;6.03;4.70;;;5.80;88.30;;;;;;5002287;28;20557;-61
2021/03/30 00:36:33;;;;;;;7.47;5.03;;;5.70;88.10;;;;;;5008272;28;20211;-61
2021/03/30 00:38:58;;;;;;;7.63;5.00;;;5.70;88.20;;;;;;5003021;28;20177;-63
2021/03/30 00:41:24;;;;;;;8.50;5.20;;;5.70;88.40;;;;;;5001025;28;20184;-62
2021/03/30 00:43:49;;;;;;;10.43;4.50;;;5.70;88.40;;;;;;5003060;28;20181;-62
2021/03/30 00:46:17;;;;;;;15.33;5.20;;;5.60;88.00;;;;;;5007539;28;20196;-63
2021/03/30 00:48:46;;;;;;;7.60;5.47;;;5.60;88.10;;;;;;5002633;28;20226;-61
2021/03/30 00:51:12;;;;;;;9.60;5.07;;;5.50;88.50;;;;;;5008799;28;20804;-62
2021/03/30 00:53:38;;;;;;;7.80;4.40;;;5.50;89.10;;;;;;5006678;28;20465;-62
2021/03/30 00:56:04;;;;;;;12.17;5.63;;;5.40;89.50;;;;;;4998138;28;20221;-63
2021/03/30 00:58:30;;;;;;;8.23;4.50;;;5.40;89.90;;;;;;5003761;28;21026;-61
2021/03/30 01:00:56;;;;;;;9.60;5.10;;;5.30;90.00;;;;;;5007714;28;20443;-61
2021/03/30 01:03:21;;;;;;;9.60;5.10;;;5.30;90.10;;;;;;4999804;28;20236;-61
2021/03/30 01:05:47;;;;;;;7.50;4.50;;;5.30;90.20;;;;;;5008265;28;20175;-60
2021/03/30 01:08:31;;;;;;;8.57;4.90;;;5.20;90.50;;;;;;5007893;28;20250;-61
2021/03/30 01:11:09;;;;;;;8.30;5.07;;;5.20;90.50;;;;;;5007907;28;20180;-62
2021/03/30 01:13:58;;;;;;;8.10;5.83;;;5.20;90.50;;;;;;5003538;28;20573;-62
2021/03/30 01:16:43;;;;;;;8.00;4.70;;;5.20;90.60;;;;;;5002109;28;20494;-62
2021/03/30 01:19:24;;;;;;;9.17;5.30;;;5.10;90.50;;;;;;5008659;28;20961;-61
2021/03/30 01:22:01;;;;;;;13.10;5.20;;;5.10;90.70;;;;;;5003306;28;21085;-62
2021/03/30 01:24:46;;;;;;;4.93;4.10;;;5.10;90.80;;;;;;5003763;28;20432;-61
2021/03/30 01:27:44;;;;;;;11.30;5.10;;;5.10;90.80;;;;;;5004185;28;20439;-61
2021/03/30 01:30:11;;;;;;;6.87;4.53;;;5.10;90.70;;;;;;5001998;28;20435;-61
2021/03/30 01:32:39;;;;;;;8.37;4.67;;;5.00;90.80;;;;;;4997110;28;20534;-62
2021/03/30 01:35:21;;;;;;;10.30;5.10;;;5.00;90.90;;;;;;4998363;28;20478;-62
2021/03/30 01:37:48;;;;;;;7.67;5.30;;;5.00;91.10;;;;;;4996540;28;20434;-61
2021/03/30 01:40:18;;;;;;;6.77;4.83;;;4.90;91.00;;;;;;5007789;28;20429;-61
2021/03/30 01:42:46;;;;;;;7.73;5.47;;;4.90;91.10;;;;;;5004031;28;20834;-62
2021/03/30 01:45:15;;;;;;;8.00;5.40;;;4.80;91.20;;;;;;5003369;28;20481;-62
2021/03/30 01:47:42;;;;;;;7.67;4.70;;;4.80;91.30;;;;;;5006879;28;20824;-61
2021/03/30 01:50:13;;;;;;;7.20;4.60;;;4.80;91.40;;;;;;5000366;28;20440;-61
2021/03/30 01:52:40;;;;;;;8.20;5.00;;;4.70;91.40;;;;;;5008699;28;20467;-61
2021/03/30 01:55:12;;;;;;;9.67;5.43;;;4.70;91.50;;;;;;5002192;28;20458;-61
2021/03/30 01:57:38;;;;;;;11.77;5.90;;;4.70;91.60;;;;;;5000251;28;20432;-62
2021/03/30 02:00:07;;;;;;;11.83;6.03;;;4.60;91.80;;;;;;4998963;28;20431;-62
2021/03/30 02:02:33;;;;;;;11.20;5.50;;;4.60;91.90;;;;;;5009824;28;20459;-62
2021/03/30 02:05:00;;;;;;;8.20;5.70;;;4.50;92.00;;;;;;5010206;28;20443;-61
2021/03/30 02:07:28;;;;;;;7.57;5.30;;;4.50;92.00;;;;;;5005508;28;20531;-63
2021/03/30 02:09:58;;;;;;;7.73;5.27;;;4.50;92.00;;;;;;5002974;28;20518;-62
2021/03/30 02:12:28;;;;;;;14.00;5.27;;;4.50;92.10;;;;;;5008600;28;20451;-61
2021/03/30 02:14:54;;;;;;;9.70;5.53;;;4.50;92.20;;;;;;5003235;28;20458;-61
2021/03/30 02:17:36;;;;;;;9.53;4.90;;;4.50;92.10;;;;;;5010802;28;20435;-62
2021/03/30 02:20:09;;;;;;;15.13;6.33;;;4.40;92.00;;;;;;4996820;28;20391;-62
2021/03/30 02:22:55;;;;;;;10.43;5.40;;;4.40;92.10;;;;;;5003719;28;20455;-63
2021/03/30 02:25:22;;;;;;;12.23;6.47;;;4.40;92.20;;;;;;5005308;28;20513;-61
2021/03/30 02:27:50;;;;;;;8.87;5.70;;;4.30;92.20;;;;;;5002112;28;20431;-63
2021/03/30 02:30:19;;;;;;;10.80;5.50;;;4.30;92.20;;;;;;5005354;28;20517;-62
2021/03/30 02:32:47;;;;;;;8.90;5.40;;;4.30;92.20;;;;;;4988555;28;21873;-62
2021/03/30 02:35:14;;;;;;;8.00;5.20;;;4.20;92.20;;;;;;5011929;28;20455;-62
2021/03/30 02:37:41;;;;;;;9.37;5.30;;;4.20;92.20;;;;;;5006229;28;20875;-61
2021/03/30 02:40:11;;;;;;;13.97;5.57;;;4.10;92.40;;;;;;5003021;28;20428;-61
2021/03/30 02:42:39;;;;;;;12.50;5.20;;;4.10;92.60;;;;;;5004607;28;20509;-61
2021/03/30 02:45:06;;;;;;;10.63;5.60;;;4.00;92.70;;;;;;5008417;28;20500;-62
2021/03/30 02:47:33;;;;;;;7.70;5.47;;;4.00;92.80;;;;;;5005682;28;20526;-64
2021/03/30 02:50:01;;;;;;;6.60;4.60;;;4.00;92.90;;;;;;5012177;28;20423;-62
2021/03/30 02:52:28;;;;;;;10.47;5.33;;;4.00;93.20;;;;;;5006903;28;21053;-62
2021/03/30 02:54:55;;;;;;;7.43;5.03;;;3.90;93.20;;;;;;5007709;28;20485;-62
2021/03/30 02:57:23;;;;;;;7.67;4.90;;;3.90;93.30;;;;;;5005754;28;20438;-62
2021/03/30 02:59:49;;;;;;;9.60;5.23;;;3.90;93.30;;;;;;5007183;28;20447;-60
2021/03/30 03:02:15;;;;;;;12.20;5.00;;;3.90;93.40;;;;;;5003903;28;20477;-61
2021/03/30 03:04:45;;;;;;;6.87;4.70;;;3.80;93.60;;;;;;5003600;28;20438;-62
2021/03/30 03:07:11;;;;;;;9.30;4.70;;;3.80;93.70;;;;;;5002539;28;20458;-63
2021/03/30 03:09:38;;;;;;;9.67;5.13;;;3.80;93.60;;;;;;5013052;28;20435;-64
2021/03/30 03:12:06;;;;;;;6.43;4.73;;;3.80;93.70;;;;;;5013628;28;20455;-62
2021/03/30 03:14:33;;;;;;;10.40;5.13;;;3.70;93.80;;;;;;5006983;28;20438;-63
2021/03/30 03:17:00;;;;;;;8.60;5.73;;;3.70;93.90;;;;;;5007113;28;20478;-61
2021/03/30 03:19:27;;;;;;;10.87;5.30;;;3.70;93.90;;;;;;5008468;28;20423;-61
2021/03/30 03:21:54;;;;;;;8.50;5.10;;;3.60;94.10;;;;;;5008894;28;20455;-61
2021/03/30 03:24:20;;;;;;;8.30;6.27;;;3.60;94.40;;;;;;5003728;28;20423;-62
2021/03/30 03:26:46;;;;;;;9.97;6.07;;;3.60;94.40;;;;;;5005821;28;20421;-62
2021/03/30 03:29:17;;;;;;;7.50;5.53;;;3.60;94.30;;;;;;5006548;28;20462;-62
2021/03/30 03:31:44;;;;;;;12.03;5.73;;;3.60;94.40;;;;;;5005660;28;20439;-61
2021/03/30 03:34:12;;;;;;;6.67;4.63;;;3.60;94.40;;;;;;4998429;28;20428;-62
2021/03/30 03:36:43;;;;;;;13.30;5.77;;;3.60;94.20;;;;;;4999855;28;20845;-62
2021/03/30 03:39:11;;;;;;;14.33;5.63;;;3.50;94.30;;;;;;5008156;28;20863;-61
2021/03/30 03:41:38;;;;;;;10.30;5.67;;;3.50;94.60;;;;;;5008855;28;20896;-61
2021/03/30 03:44:05;;;;;;;7.10;5.17;;;3.50;94.60;;;;;;5005731;28;20499;-62
2021/03/30 03:46:31;;;;;;;10.53;6.10;;;3.50;94.60;;;;;;5003504;28;20436;-62
2021/03/30 03:48:57;;;;;;;15.20;5.80;;;3.50;94.40;;;;;;5005790;28;20440;-61
2021/03/30 03:51:24;;;;;;;11.53;5.50;;;3.40;94.30;;;;;;4994279;28;20170;-62
2021/03/30 03:53:53;;;;;;;8.90;5.80;;;3.40;94.30;;;;;;5000883;28;20482;-62
2021/03/30 03:56:26;;;;;;;8.40;5.60;;;3.40;94.40;;;;;;5002125;28;20828;-62
2021/03/30 03:58:56;;;;;;;7.10;5.37;;;3.40;94.60;;;;;;5008520;28;20879;-64
2021/03/30 04:01:29;;;;;;;11.00;5.90;;;3.30;94.50;;;;;;4999237;28;20420;-63
2021/03/30 04:04:05;;;;;;;7.23;5.07;;;3.30;94.60;;;;;;5006078;28;20554;-64
2021/03/30 04:06:36;;;;;;;7.63;5.80;;;3.30;95.00;;;;;;5003629;28;20439;-63
2021/03/30 04:09:05;;;;;;;8.73;5.73;;;3.30;95.10;;;;;;5002018;28;20472;-63
2021/03/30 04:11:30;;;;;;;8.27;5.83;;;3.30;95.40;;;;;;5000252;28;20445;-62
2021/03/30 04:13:59;;;;;;;6.83;5.40;;;3.30;95.30;;;;;;5007673;28;20427;-63
2021/03/30 04:16:25;;;;;;;11.23;5.63;;;3.30;95.30;;;;;;5009027;28;20890;-62
2021/03/30 04:18:51;;;;;;;10.33;6.20;;;3.30;95.30;;;;;;5005091;28;20920;-63
2021/03/30 04:21:24;;;;;;;6.87;5.30;;;3.20;95.30;;;;;;5004692;28;20947;-63
2021/03/30 04:23:51;;;;;;;11.57;5.97;;;3.20;95.40;;;;;;5006288;28;20540;-63
2021/03/30 04:26:17;;;;;;;10.30;5.70;;;3.20;95.40;;;;;;5003852;28;20553;-63
2021/03/30 04:28:43;;;;;;;21.50;6.93;;;3.20;95.40;;;;;;5004099;28;20940;-62
2021/03/30 04:31:08;;;;;;;12.97;4.77;;;3.20;95.40;;;;;;5014741;28;20185;-63
2021/03/30 04:33:34;;;;;;;8.97;5.93;;;3.20;95.30;;;;;;5000166;28;20241;-62
2021/03/30 04:36:00;;;;;;;12.30;5.97;;;3.10;95.30;;;;;;5006218;28;20697;-63
2021/03/30 04:38:25;;;;;;;10.23;5.50;;;3.10;95.50;;;;;;4999131;28;20435;-62
2021/03/30 04:40:54;;;;;;;8.53;5.77;;;3.00;95.40;;;;;;4997311;28;20208;-62
2021/03/30 04:43:21;;;;;;;10.10;6.13;;;3.00;95.50;;;;;;4996134;28;20201;-63
2021/03/30 04:45:47;;;;;;;12.43;5.90;;;3.00;95.50;;;;;;4992242;28;20436;-62
2021/03/30 04:48:13;;;;;;;14.07;6.07;;;3.00;95.60;;;;;;4996626;28;20438;-62
2021/03/30 04:50:38;;;;;;;8.37;5.53;;;3.00;95.60;;;;;;5008349;28;20179;-63
2021/03/30 04:53:04;;;;;;;11.10;6.57;;;3.00;95.70;;;;;;5008160;28;20201;-62
2021/03/30 04:55:30;;;;;;;12.13;6.43;;;3.00;95.60;;;;;;5003126;28;20184;-62
2021/03/30 04:57:56;;;;;;;12.80;7.00;;;2.90;95.60;;;;;;5007316;28;20215;-61
2021/03/30 05:00:22;;;;;;;11.03;7.03;;;2.90;95.80;;;;;;5003100;28;20177;-62
2021/03/30 05:02:47;;;;;;;10.47;6.63;;;2.90;96.00;;;;;;5003568;28;20208;-62
2021/03/30 05:05:13;;;;;;;8.53;6.40;;;2.90;96.00;;;;;;5008830;28;20411;-62
2021/03/30 05:07:39;;;;;;;12.27;5.77;;;2.90;95.90;;;;;;5009409;28;20793;-62
2021/03/30 05:10:06;;;;;;;6.37;5.67;;;2.90;95.90;;;;;;5006868;28;20480;-62
2021/03/30 05:12:32;;;;;;;11.13;6.47;;;2.90;95.90;;;;;;4997427;28;20687;-62
2021/03/30 05:14:57;;;;;;;13.80;5.67;;;2.80;96.00;;;;;;5006111;28;20485;-61
2021/03/30 05:17:23;;;;;;;9.03;6.20;;;2.80;96.00;;;;;;5003029;28;20543;-62
2021/03/30 05:19:49;;;;;;;10.07;6.43;;;2.80;96.10;;;;;;5006832;28;20313;-61
2021/03/30 05:22:14;;;;;;;12.00;5.20;;;2.80;96.10;;;;;;5000332;28;20205;-63
2021/03/30 05:24:40;;;;;;;9.53;6.30;;;2.80;96.10;;;;;;5006386;28;20168;-63
2021/03/30 05:27:06;;;;;;;9.83;6.17;;;2.80;96.20;;;;;;5003658;28;20661;-64
2021/03/30 05:29:42;;;;;;;8.67;4.90;;;2.80;96.30;;;;;;5004196;28;21025;-62
2021/03/30 05:32:12;;;;;;;8.80;6.43;;;2.80;96.30;;;;;;5005261;28;20466;-62
2021/03/30 05:34:38;;;;;;;15.33;6.70;;;2.80;96.20;;;;;;5004725;28;20497;-63
2021/03/30 05:37:04;;;;;;;13.70;6.47;;;2.80;96.30;;;;;;5005196;28;20437;-61
2021/03/30 05:39:30;;;;;;;25.63;7.60;;;2.80;96.20;;;;;;5000027;28;20430;-64
2021/03/30 05:41:57;;;;;;;18.87;7.17;;;2.80;96.40;;;;;;5001963;28;20564;-62
2021/03/30 05:44:22;;;;;;;11.80;6.23;;;2.80;96.40;;;;;;5001660;28;20524;-65
2021/03/30 05:47:02;;;;;;;10.47;6.83;;;2.90;96.50;;;;;;5002413;28;20475;-62
2021/03/30 05:49:28;;;;;;;11.30;7.20;;;2.90;96.50;;;;;;5002249;28;20652;-62
2021/03/30 05:51:55;;;;;;;15.60;7.20;;;2.90;96.50;;;;;;5013010;28;20546;-63
2021/03/30 05:54:24;;;;;;;13.20;6.97;;;2.90;96.50;;;;;;5008967;28;20178;-62
2021/03/30 05:56:50;;;;;;;17.80;7.70;;;3.00;96.60;;;;;;5003478;28;20460;-65
2021/03/30 05:59:20;;;;;;;15.73;7.20;;;3.10;96.70;;;;;;5006181;28;20434;-62
2021/03/30 06:01:46;;;;;;;12.97;7.60;;;3.20;96.70;;;;;;5003067;28;20473;-62
2021/03/30 06:04:13;;;;;;;21.80;8.10;;;3.30;96.40;;;;;;5002993;28;20432;-62
2021/03/30 06:06:39;;;;;;;11.73;7.50;;;3.40;96.30;;;;;;5006120;28;20477;-61
2021/03/30 06:09:06;;;;;;;12.93;6.87;;;3.50;95.90;;;;;;5008399;28;20459;-62
2021/03/30 06:11:32;;;;;;;12.80;7.30;;;3.50;95.90;;;;;;5006472;28;20430;-62
2021/03/30 06:13:59;;;;;;;8.07;5.60;;;3.60;95.70;;;;;;5008364;28;20430;-63
2021/03/30 06:16:34;;;;;;;9.73;6.43;;;3.70;95.50;;;;;;5007302;28;20965;-65
2021/03/30 06:19:00;;;;;;;16.00;6.53;;;3.80;95.40;;;;;;5002860;28;20442;-62
2021/03/30 06:21:26;;;;;;;11.90;6.60;;;3.80;95.30;;;;;;5003104;28;20431;-62
2021/03/30 06:23:52;;;;;;;13.70;6.63;;;3.90;95.30;;;;;;5006498;28;20625;-62
2021/03/30 06:26:18;;;;;;;14.77;6.80;;;4.00;95.10;;;;;;5000911;28;20179;-62
2021/03/30 06:28:43;;;;;;;10.83;6.43;;;4.10;94.90;;;;;;5003788;28;22147;-63
2021/03/30 06:31:12;;;;;;;18.23;6.20;;;4.10;94.80;;;;;;5001685;28;20676;-63
2021/03/30 06:33:56;;;;;;;15.63;7.13;;;4.20;94.60;;;;;;5005843;28;20216;-62
2021/03/30 06:36:40;;;;;;;12.27;6.67;;;4.30;94.70;;;;;;5003610;28;20988;-62
2021/03/30 06:39:10;;;;;;;13.70;6.67;;;4.40;94.60;;;;;;5006033;28;20988;-63
2021/03/30 06:44:29;;;;;;;14.67;6.97;;;4.60;93.90;;;;;;5002134;28;20431;-63
2021/03/30 06:46:59;;;;;;;9.47;6.23;;;4.70;93.80;;;;;;5004764;28;20435;-63
2021/03/30 06:49:27;;;;;;;14.20;6.87;;;4.80;93.70;;;;;;5000878;28;20450;-62
2021/03/30 06:51:54;;;;;;;8.80;5.30;;;4.90;93.70;;;;;;5009763;28;20448;-62
2021/03/30 06:54:20;;;;;;;12.00;6.50;;;4.90;93.80;;;;;;5001653;28;21123;-62
2021/03/30 06:56:56;;;;;;;10.47;6.43;;;5.00;93.60;;;;;;5006621;28;20541;-62
2021/03/30 06:59:23;;;;;;;10.00;6.40;;;5.10;93.30;;;;;;5007781;28;20460;-61
2021/03/30 07:01:54;;;;;;;12.27;6.70;;;5.20;93.60;;;;;;5003762;28;20451;-63
2021/03/30 07:04:20;;;;;;;11.10;6.13;;;5.20;93.70;;;;;;4993693;28;20545;-61
2021/03/30 07:06:53;;;;;;;9.60;6.33;;;5.30;93.80;;;;;;5006078;28;20429;-62
2021/03/30 07:09:22;;;;;;;10.00;6.17;;;5.40;93.60;;;;;;5003818;28;20497;-63
2021/03/30 07:11:48;;;;;;;10.90;5.73;;;5.50;93.40;;;;;;4998541;28;20447;-62
2021/03/30 07:14:14;;;;;;;9.77;6.33;;;5.60;93.50;;;;;;4997795;28;21221;-63
2021/03/30 07:16:53;;;;;;;14.43;6.33;;;5.80;93.30;;;;;;4999272;28;20517;-62
2021/03/30 07:19:25;;;;;;;14.77;5.07;;;5.90;93.30;;;;;;5007566;28;20341;-62
2021/03/30 07:22:09;;;;;;;9.50;4.93;;;6.00;93.10;;;;;;5006713;28;20458;-63
2021/03/30 07:25:02;;;;;;;8.90;4.83;;;6.20;92.60;;;;;;4998322;28;20445;-64
2021/03/30 07:27:31;;;;;;;10.17;5.17;;;6.30;92.10;;;;;;4999318;28;20427;-63
2021/03/30 07:29:59;;;;;;;9.13;5.03;;;6.50;91.40;;;;;;5001398;28;20435;-63
2021/03/30 07:32:43;;;;;;;8.10;4.73;;;6.60;90.90;;;;;;4998795;28;20455;-62
2021/03/30 07:35:17;;;;;;;10.20;4.97;;;6.70;90.50;;;;;;5001071;28;20458;-62
2021/03/30 07:38:21;;;;;;;8.23;4.57;;;6.80;90.60;;;;;;4999330;28;20414;-62
2021/03/30 07:40:48;;;;;;;13.80;5.33;;;6.90;90.40;;;;;;4999442;28;20429;-62
2021/03/30 07:43:30;;;;;;;10.70;4.80;;;7.10;89.90;;;;;;4999534;28;20535;-62
2021/03/30 07:45:59;;;;;;;8.03;5.23;;;7.20;89.00;;;;;;5001122;28;20491;-62
2021/03/30 07:48:27;;;;;;;8.07;4.50;;;7.30;89.00;;;;;;5000667;28;20455;-62
2021/03/30 07:51:05;;;;;;;9.03;5.00;;;7.50;89.30;;;;;;4999456;28;20443;-62
2021/03/30 07:53:46;;;;;;;11.83;5.10;;;7.60;90.00;;;;;;4998649;28;20585;-59
2021/03/30 07:56:24;;;;;;;10.87;5.00;;;7.80;90.00;;;;;;5002444;28;20467;-58
2021/03/30 07:58:52;;;;;;;12.10;5.33;;;8.00;87.80;;;;;;5003628;28;20435;-62
2021/03/30 08:01:19;;;;;;;10.90;6.53;;;8.10;86.70;;;;;;5002864;28;20510;-62
2021/03/30 08:03:47;;;;;;;9.20;5.70;;;8.30;84.50;;;;;;5005621;28;20451;-62
2021/03/30 08:06:19;;;;;;;15.23;6.47;;;8.40;82.50;;;;;;5006178;28;20435;-62
2021/03/30 08:08:46;;;;;;;19.27;7.67;;;8.60;82.30;;;;;;5018383;28;20443;-64
2021/03/30 08:11:12;;;;;;;30.80;8.17;;;8.70;82.10;;;;;;5024181;28;20432;-63
2021/03/30 08:13:52;;;;;;;12.63;7.40;;;8.80;81.50;;;;;;5027832;28;20449;-62
2021/03/30 08:16:19;;;;;;;12.87;7.33;;;9.00;79.30;;;;;;4998850;28;21018;-62
2021/03/30 08:18:47;;;;;;;19.63;8.70;;;9.10;78.80;;;;;;5004547;28;20644;-62
2021/03/30 08:21:15;;;;;;;24.33;8.40;;;9.30;79.40;;;;;;5005604;28;20488;-63
2021/03/30 08:23:53;;;;;;;14.47;7.70;;;9.50;77.70;;;;;;5000974;28;20451;-62
2021/03/30 08:26:30;;;;;;;13.47;6.53;;;9.70;77.10;;;;;;5001503;28;20459;-61
2021/03/30 08:29:11;;;;;;;12.67;7.33;;;9.90;74.10;;;;;;5002714;28;20446;-63
2021/03/30 08:31:50;;;;;;;13.60;6.87;;;10.10;71.60;;;;;;5003103;28;20437;-62
2021/03/30 08:34:26;;;;;;;17.13;7.60;;;10.20;68.80;;;;;;5006755;28;20438;-62
2021/03/30 08:36:54;;;;;;;15.10;7.50;;;10.40;66.50;;;;;;4999751;28;20474;-62
2021/03/30 08:39:20;;;;;;;22.37;7.00;;;10.50;64.40;;;;;;4999180;28;20462;-63
2021/03/30 08:42:11;;;;;;;15.47;7.83;;;10.70;62.40;;;;;;5007511;28;20482;-61
2021/03/30 08:45:05;;;;;;;14.70;7.67;;;10.90;60.10;;;;;;4990630;28;20795;-62
2021/03/30 08:47:39;;;;;;;25.10;8.53;;;11.10;60.10;;;;;;5007766;28;20431;-62
2021/03/30 08:50:25;;;;;;;16.10;8.20;;;11.30;59.40;;;;;;5001683;28;20439;-62
2021/03/30 08:52:57;;;;;;;14.00;5.97;;;11.50;58.00;;;;;;5003244;28;20478;-62
2021/03/30 08:55:30;;;;;;;9.80;5.50;;;11.70;57.20;;;;;;5004390;28;20817;-64
2021/03/30 08:58:00;;;;;;;7.60;4.47;;;11.90;55.50;;;;;;5001693;28;20941;-62
2021/03/30 09:00:27;;;;;;;10.47;4.27;;;12.20;56.10;;;;;;5003290;28;20801;-63
2021/03/30 09:03:04;;;;;;;8.40;4.77;;;12.40;56.30;;;;;;4998350;28;20479;-63
2021/03/30 09:05:39;;;;;;;8.70;4.40;;;12.60;56.60;;;;;;4995964;28;20442;-63
2021/03/30 09:08:10;;;;;;;7.90;4.83;;;12.80;57.20;;;;;;5003915;28;20548;-61
2021/03/30 09:10:36;;;;;;;10.80;5.37;;;13.00;56.10;;;;;;5005811;28;20781;-62
2021/03/30 09:13:16;;;;;;;6.90;4.57;;;13.10;55.60;;;;;;5002537;28;20452;-63
2021/03/30 09:15:46;;;;;;;7.90;4.50;;;13.30;55.10;;;;;;5000205;28;20475;-62
2021/03/30 09:18:23;;;;;;;8.07;5.07;;;13.50;55.20;;;;;;4994934;28;20427;-64
2021/03/30 09:21:09;;;;;;;14.80;4.87;;;13.80;54.70;;;;;;4998802;28;21002;-64
2021/03/30 09:23:36;;;;;;;11.03;4.53;;;14.00;53.40;;;;;;5023417;28;20455;-65
2021/03/30 09:26:10;;;;;;;8.07;4.53;;;14.20;52.90;;;;;;5027735;28;20454;-65
2021/03/30 09:28:36;;;;;;;7.67;4.07;;;14.50;50.90;;;;;;5027611;28;20443;-64
2021/03/30 09:31:02;;;;;;;9.60;5.00;;;14.70;49.90;;;;;;5024826;28;20560;-65
2021/03/30 09:33:28;;;;;;;13.83;3.73;;;14.90;48.20;;;;;;5020506;28;20785;-64
2021/03/30 09:35:54;;;;;;;6.30;4.10;;;15.20;47.00;;;;;;5026257;28;20986;-67
2021/03/30 09:38:20;;;;;;;10.30;4.90;;;15.40;46.20;;;;;;5024476;28;20463;-63
2021/03/30 09:40:46;;;;;;;13.97;5.20;;;15.70;45.30;;;;;;5006354;28;20183;-63
2021/03/30 09:43:14;;;;;;;7.60;4.80;;;15.90;44.00;;;;;;5006769;28;20459;-64
2021/03/30 09:45:42;;;;;;;6.67;4.20;;;16.20;43.50;;;;;;4996804;28;20863;-64
2021/03/30 09:48:16;;;;;;;8.30;4.30;;;16.40;42.50;;;;;;4998169;28;20904;-63
2021/03/30 09:50:47;;;;;;;5.47;3.40;;;16.60;41.40;;;;;;5005869;28;20437;-64
2021/03/30 09:53:13;;;;;;;5.20;3.63;;;16.80;40.30;;;;;;5007079;28;20539;-64
2021/03/30 09:55:45;;;;;;;8.63;3.37;;;16.90;38.70;;;;;;4998318;28;20612;-64
2021/03/30 09:58:16;;;;;;;4.70;2.73;;;17.10;37.50;;;;;;5004096;28;20931;-64
2021/03/30 10:00:45;;;;;;;5.07;2.60;;;17.20;36.10;;;;;;5005035;28;20420;-64
2021/03/30 10:03:12;;;;;;;12.83;3.00;;;17.40;34.90;;;;;;5005477;28;20463;-64
2021/03/30 10:05:40;;;;;;;4.60;2.90;;;17.50;33.90;;;;;;4998924;28;20442;-63
2021/03/30 10:08:23;;;;;;;6.10;2.97;;;17.60;33.70;;;;;;5004063;28;20490;-64
2021/03/30 10:10:51;;;;;;;6.37;2.67;;;17.80;32.60;;;;;;4996894;28;20431;-63
2021/03/30 10:13:36;;;;;;;12.13;2.57;;;17.90;32.30;;;;;;5006299;28;20490;-63
2021/03/30 10:16:06;;;;;;;6.93;2.33;;;18.00;32.60;;;;;;5006075;28;20463;-63
2021/03/30 10:18:33;;;;;;;6.13;2.43;;;18.10;32.30;;;;;;5001418;28;20657;-63
2021/03/30 10:21:00;;;;;;;4.10;2.20;;;18.20;31.30;;;;;;5008495;28;20439;-60
2021/03/30 10:23:30;;;;;;;4.40;2.37;;;18.30;31.30;;;;;;5006555;28;20453;-63
2021/03/30 10:25:56;;;;;;;5.50;2.40;;;18.40;31.20;;;;;;5007122;28;20436;-63
2021/03/30 10:28:30;;;;;;;6.93;2.53;;;18.50;31.50;;;;;;4997916;28;20439;-64
2021/03/30 10:31:01;;;;;;;5.50;2.87;;;18.70;31.80;;;;;;5001518;28;20243;-64
2021/03/30 10:33:38;;;;;;;3.83;2.50;;;18.80;31.90;;;;;;5004204;28;21090;-63
2021/03/30 10:36:04;;;;;;;4.93;2.70;;;18.90;32.40;;;;;;5004241;28;20465;-58
2021/03/30 10:38:30;;;;;;;5.23;2.80;;;19.00;32.00;;;;;;5004734;28;20459;-60
2021/03/30 10:41:10;;;;;;;10.73;2.30;;;19.10;31.50;;;;;;5007349;28;20569;-61
2021/03/30 10:43:36;;;;;;;5.70;2.53;;;19.30;31.50;;;;;;5009198;28;20196;-59
2021/03/30 10:46:22;;;;;;;8.37;2.90;;;19.40;31.50;;;;;;5008839;28;20501;-59
2021/03/30 10:49:01;;;;;;;8.13;3.00;;;19.40;32.20;;;;;;5004290;28;20427;-60
2021/03/30 10:51:29;;;;;;;6.10;2.70;;;19.60;31.60;;;;;;5011493;28;21059;-58
2021/03/30 10:53:57;;;;;;;3.47;2.60;;;19.70;32.10;;;;;;5002917;28;20441;-60
2021/03/30 10:56:23;;;;;;;2.73;2.30;;;19.80;31.30;;;;;;5009143;28;20473;-58
2021/03/30 10:58:48;;;;;;;3.60;2.40;;;19.90;30.50;;;;;;5004733;28;20486;-60
2021/03/30 11:01:14;;;;;;;6.57;2.60;;;20.00;30.70;;;;;;5001506;28;20799;-59
2021/03/30 11:03:39;;;;;;;5.90;2.30;;;20.00;29.80;;;;;;5000717;28;20290;-59
2021/03/30 11:06:05;;;;;;;3.17;2.30;;;20.10;29.60;;;;;;5005432;28;20181;-59
2021/03/30 11:08:31;;;;;;;6.63;3.67;;;20.20;29.70;;;;;;5006843;28;20208;-59
2021/03/30 11:10:57;;;;;;;2.90;2.13;;;20.30;29.30;;;;;;4999036;28;20228;-59
2021/03/30 11:13:22;;;;;;;9.37;3.87;;;20.30;29.40;;;;;;5003951;28;20753;-59
2021/03/30 11:15:50;;;;;;;10.10;5.30;;;20.40;29.40;;;;;;4998418;28;20264;-61
2021/03/30 11:18:16;;;;;;;5.37;4.33;;;20.50;29.20;;;;;;5005938;28;20177;-61
2021/03/30 11:20:42;;;;;;;12.80;5.80;;;20.70;29.00;;;;;;5003026;28;20434;-60
2021/03/30 11:23:08;;;;;;;3.23;2.17;;;20.80;29.10;;;;;;5001205;28;20197;-61
2021/03/30 11:25:36;;;;;;;7.63;4.37;;;20.90;29.70;;;;;;5002414;28;20520;-64
2021/03/30 11:28:06;;;;;;;7.33;2.47;;;21.00;29.50;;;;;;4999402;28;20194;-63
2021/03/30 11:31:25;;;;;;;3.63;2.20;;;21.20;28.80;;;;;;5004132;28;20895;-63
2021/03/30 11:38:15;;;;;;;4.23;2.00;;;21.60;28.00;;;;;;5003822;28;20454;-63
2021/03/30 11:40:41;;;;;;;8.00;1.90;;;21.70;27.90;;;;;;5002064;28;20212;-63
2021/03/30 11:43:07;;;;;;;3.80;2.10;;;21.80;28.20;;;;;;5003948;28;20203;-62
2021/03/30 11:45:33;;;;;;;7.87;2.27;;;21.90;27.80;;;;;;5008790;28;20493;-62
2021/03/30 11:48:00;;;;;;;5.47;2.40;;;22.10;27.50;;;;;;5007460;28;20942;-62
2021/03/30 11:50:27;;;;;;;6.13;2.07;;;22.20;28.10;;;;;;5010373;28;20212;-64
2021/03/30 11:52:53;;;;;;;4.70;2.43;;;22.40;28.60;;;;;;5011038;28;20455;-64
2021/03/30 11:55:19;;;;;;;10.07;2.60;;;22.50;27.60;;;;;;5004987;28;20607;-64
2021/03/30 11:57:45;;;;;;;8.03;2.17;;;22.70;27.40;;;;;;5001161;28;20645;-63
2021/03/30 12:00:12;;;;;;;4.23;2.00;;;22.80;27.20;;;;;;5002382;28;20489;-64
2021/03/30 12:02:38;;;;;;;6.70;3.37;;;22.90;27.00;;;;;;5001081;28;20600;-66
2021/03/30 12:05:04;;;;;;;3.50;2.10;;;23.10;27.10;;;;;;5008562;28;20474;-66
2021/03/30 12:07:30;;;;;;;9.87;2.70;;;23.20;27.70;;;;;;5000345;28;20195;-66
2021/03/30 12:09:57;;;;;;;9.10;2.90;;;23.40;28.00;;;;;;5004299;28;20440;-66
2021/03/30 12:12:23;;;;;;;5.53;2.40;;;23.60;28.10;;;;;;5008563;28;20260;-66
2021/03/30 12:14:49;;;;;;;2.00;1.70;;;23.70;26.70;;;;;;5002515;28;20511;-67
2021/03/30 12:17:14;;;;;;;5.50;2.20;;;23.80;25.60;;;;;;5001081;28;20173;-67
2021/03/30 12:19:40;;;;;;;2.83;1.93;;;23.90;26.20;;;;;;5005935;28;20403;-66
2021/03/30 12:22:06;;;;;;;2.70;1.80;;;24.00;26.90;;;;;;5008942;28;20724;-67
2021/03/30 12:24:32;;;;;;;3.23;1.83;;;24.00;25.10;;;;;;5007652;28;20548;-67
2021/03/30 12:26:58;;;;;;;3.27;1.60;;;24.10;25.70;;;;;;5003957;28;20562;-67
2021/03/30 12:29:23;;;;;;;1.73;1.60;;;24.20;25.70;;;;;;5005642;28;20582;-67
2021/03/30 12:31:49;;;;;;;4.50;1.83;;;24.20;26.60;;;;;;5003350;28;20747;-66
2021/03/30 12:34:15;;;;;;;2.70;1.43;;;24.40;26.70;;;;;;5002743;28;20189;-67
2021/03/30 12:36:41;;;;;;;3.57;2.20;;;24.50;25.50;;;;;;5006374;28;20676;-66
2021/03/30 12:39:08;;;;;;;10.03;1.77;;;24.60;26.10;;;;;;5001726;28;20174;-67
2021/03/30 12:41:34;;;;;;;6.00;2.07;;;24.60;25.40;;;;;;5011204;28;20454;-67
2021/03/30 12:44:00;;;;;;;2.00;1.50;;;24.70;26.30;;;;;;5006740;28;20466;-65
2021/03/30 12:46:25;;;;;;;2.77;1.60;;;24.80;25.70;;;;;;5006487;28;20195;-66
2021/03/30 12:48:52;;;;;;;2.60;1.40;;;25.00;25.10;;;;;;5002320;28;20180;-66
2021/03/30 12:51:17;;;;;;;2.40;1.10;;;25.20;24.50;;;;;;5007156;28;20183;-65
2021/03/30 12:53:43;;;;;;;2.20;1.30;;;25.30;24.50;;;;;;5002358;28;21062;-66
2021/03/30 12:56:09;;;;;;;2.73;1.27;;;25.30;24.00;;;;;;5002889;28;20204;-69
2021/03/30 12:58:35;;;;;;;1.50;1.33;;;25.50;24.30;;;;;;5004804;28;20655;-66
2021/03/30 13:01:00;;;;;;;3.13;1.27;;;25.60;24.30;;;;;;5003491;28;20192;-67
2021/03/30 13:03:26;;;;;;;4.53;1.53;;;25.70;24.30;;;;;;5003341;28;20307;-65
2021/03/30 13:05:52;;;;;;;1.77;1.30;;;25.80;24.90;;;;;;5000931;28;20643;-66